sensor_id;sensor_type;location;lat;lon;timestamp;P1;durP1;ratioP1;P2;durP2;ratioP2
36441;SDS011;64346;50.820;16.274;2022-12-18T00:01:30;48.58;;;25.33;;
36441;SDS011;64346;50.820;16.274;2022-12-18T00:04:05;50.22;;;22.73;;
36441;SDS011;64346;50.820;16.274;2022-12-18T00:06:34;48.95;;;23.35;;
36441;SDS011;64346;50.820;16.274;2022-12-18T00:09:02;45.40;;;22.50;;
36441;SDS011;64346;50.820;16.274;2022-12-18T00:11:30;40.70;;;22.23;;
36441;SDS011;64346;50.820;16.274;2022-12-18T00:14:00;47.55;;;21.85;;
36441;SDS011;64346;50.820;16.274;2022-12-18T00:16:28;43.33;;;21.85;;
36441;SDS011;64346;50.820;16.274;2022-12-18T00:18:57;44.58;;;21.70;;
36441;SDS011;64346;50.820;16.274;2022-12-18T00:21:26;45.22;;;21.52;;
36441;SDS011;64346;50.820;16.274;2022-12-18T00:23:57;46.50;;;21.27;;
36441;SDS011;64346;50.820;16.274;2022-12-18T00:26:28;46.03;;;21.58;;
36441;SDS011;64346;50.820;16.274;2022-12-18T00:28:58;42.60;;;20.38;;
36441;SDS011;64346;50.820;16.274;2022-12-18T00:31:27;47.03;;;21.05;;
36441;SDS011;64346;50.820;16.274;2022-12-18T00:33:57;44.25;;;20.83;;
36441;SDS011;64346;50.820;16.274;2022-12-18T00:36:28;43.92;;;20.40;;
36441;SDS011;64346;50.820;16.274;2022-12-18T00:38:58;42.83;;;19.88;;
36441;SDS011;64346;50.820;16.274;2022-12-18T00:41:26;44.45;;;21.55;;
36441;SDS011;64346;50.820;16.274;2022-12-18T00:43:54;48.80;;;22.45;;
36441;SDS011;64346;50.820;16.274;2022-12-18T00:46:21;43.70;;;22.27;;
36441;SDS011;64346;50.820;16.274;2022-12-18T00:48:48;45.88;;;22.60;;
36441;SDS011;64346;50.820;16.274;2022-12-18T00:51:15;45.65;;;21.67;;
36441;SDS011;64346;50.820;16.274;2022-12-18T00:53:43;50.35;;;23.98;;
36441;SDS011;64346;50.820;16.274;2022-12-18T00:56:10;48.53;;;24.60;;
36441;SDS011;64346;50.820;16.274;2022-12-18T00:58:38;47.95;;;22.35;;
36441;SDS011;64346;50.820;16.274;2022-12-18T01:01:07;44.90;;;21.77;;
36441;SDS011;64346;50.820;16.274;2022-12-18T01:03:37;45.38;;;22.33;;
36441;SDS011;64346;50.820;16.274;2022-12-18T01:06:06;45.33;;;22.73;;
36441;SDS011;64346;50.820;16.274;2022-12-18T01:08:35;51.55;;;22.85;;
36441;SDS011;64346;50.820;16.274;2022-12-18T01:11:13;46.05;;;22.20;;
36441;SDS011;64346;50.820;16.274;2022-12-18T01:13:43;50.55;;;23.10;;
36441;SDS011;64346;50.820;16.274;2022-12-18T01:16:11;46.40;;;23.83;;
36441;SDS011;64346;50.820;16.274;2022-12-18T01:18:40;52.10;;;24.05;;
36441;SDS011;64346;50.820;16.274;2022-12-18T01:21:07;46.03;;;22.58;;
36441;SDS011;64346;50.820;16.274;2022-12-18T01:23:36;54.25;;;23.65;;
36441;SDS011;64346;50.820;16.274;2022-12-18T01:26:05;45.70;;;23.40;;
36441;SDS011;64346;50.820;16.274;2022-12-18T01:28:43;51.72;;;24.27;;
36441;SDS011;64346;50.820;16.274;2022-12-18T01:33:51;51.03;;;25.27;;
36441;SDS011;64346;50.820;16.274;2022-12-18T01:36:22;54.50;;;24.73;;
36441;SDS011;64346;50.820;16.274;2022-12-18T01:38:55;48.30;;;23.83;;
36441;SDS011;64346;50.820;16.274;2022-12-18T01:41:26;48.17;;;23.23;;
36441;SDS011;64346;50.820;16.274;2022-12-18T01:43:56;48.60;;;24.45;;
36441;SDS011;64346;50.820;16.274;2022-12-18T01:46:24;48.63;;;24.60;;
36441;SDS011;64346;50.820;16.274;2022-12-18T01:48:59;59.40;;;26.83;;
36441;SDS011;64346;50.820;16.274;2022-12-18T01:51:30;54.90;;;24.98;;
36441;SDS011;64346;50.820;16.274;2022-12-18T01:54:00;52.97;;;25.73;;
36441;SDS011;64346;50.820;16.274;2022-12-18T01:56:30;52.28;;;24.38;;
36441;SDS011;64346;50.820;16.274;2022-12-18T01:59:04;57.92;;;26.27;;
36441;SDS011;64346;50.820;16.274;2022-12-18T02:01:34;55.47;;;24.75;;
36441;SDS011;64346;50.820;16.274;2022-12-18T02:06:50;51.38;;;25.88;;
36441;SDS011;64346;50.820;16.274;2022-12-18T02:09:38;51.22;;;24.73;;
36441;SDS011;64346;50.820;16.274;2022-12-18T02:12:16;56.15;;;25.75;;
36441;SDS011;64346;50.820;16.274;2022-12-18T02:14:55;53.65;;;25.45;;
36441;SDS011;64346;50.820;16.274;2022-12-18T02:20:04;54.88;;;24.95;;
36441;SDS011;64346;50.820;16.274;2022-12-18T02:22:44;46.47;;;23.25;;
36441;SDS011;64346;50.820;16.274;2022-12-18T02:28:06;51.63;;;25.83;;
36441;SDS011;64346;50.820;16.274;2022-12-18T02:30:38;52.67;;;27.13;;
36441;SDS011;64346;50.820;16.274;2022-12-18T02:33:07;53.15;;;25.33;;
36441;SDS011;64346;50.820;16.274;2022-12-18T02:35:37;55.65;;;26.20;;
36441;SDS011;64346;50.820;16.274;2022-12-18T02:38:07;55.67;;;25.23;;
36441;SDS011;64346;50.820;16.274;2022-12-18T02:40:38;51.33;;;25.73;;
36441;SDS011;64346;50.820;16.274;2022-12-18T02:43:11;51.55;;;25.38;;
36441;SDS011;64346;50.820;16.274;2022-12-18T02:45:47;53.13;;;25.90;;
36441;SDS011;64346;50.820;16.274;2022-12-18T02:48:15;50.17;;;25.02;;
36441;SDS011;64346;50.820;16.274;2022-12-18T02:50:48;52.22;;;24.40;;
36441;SDS011;64346;50.820;16.274;2022-12-18T02:53:40;50.80;;;24.98;;
36441;SDS011;64346;50.820;16.274;2022-12-18T03:07:01;62.70;;;30.27;;
36441;SDS011;64346;50.820;16.274;2022-12-18T03:09:38;61.22;;;29.00;;
36441;SDS011;64346;50.820;16.274;2022-12-18T03:12:13;68.55;;;30.35;;
36441;SDS011;64346;50.820;16.274;2022-12-18T03:17:50;68.82;;;34.85;;
36441;SDS011;64346;50.820;16.274;2022-12-18T03:20:24;78.38;;;36.13;;
36441;SDS011;64346;50.820;16.274;2022-12-18T03:22:57;79.00;;;37.47;;
36441;SDS011;64346;50.820;16.274;2022-12-18T03:25:27;80.47;;;38.30;;
36441;SDS011;64346;50.820;16.274;2022-12-18T03:27:58;82.40;;;38.47;;
36441;SDS011;64346;50.820;16.274;2022-12-18T03:30:29;88.00;;;39.83;;
36441;SDS011;64346;50.820;16.274;2022-12-18T03:33:17;89.47;;;40.33;;
36441;SDS011;64346;50.820;16.274;2022-12-18T03:35:50;80.25;;;37.08;;
36441;SDS011;64346;50.820;16.274;2022-12-18T03:38:20;77.70;;;34.78;;
36441;SDS011;64346;50.820;16.274;2022-12-18T03:41:03;72.82;;;33.97;;
36441;SDS011;64346;50.820;16.274;2022-12-18T03:43:41;69.90;;;33.88;;
36441;SDS011;64346;50.820;16.274;2022-12-18T03:49:23;79.75;;;36.15;;
36441;SDS011;64346;50.820;16.274;2022-12-18T03:54:32;62.35;;;28.48;;
36441;SDS011;64346;50.820;16.274;2022-12-18T03:57:04;77.70;;;35.10;;
36441;SDS011;64346;50.820;16.274;2022-12-18T03:59:36;48.67;;;22.63;;
36441;SDS011;64346;50.820;16.274;2022-12-18T04:02:07;50.03;;;24.15;;
36441;SDS011;64346;50.820;16.274;2022-12-18T04:04:36;62.03;;;28.88;;
36441;SDS011;64346;50.820;16.274;2022-12-18T04:07:06;74.28;;;34.63;;
36441;SDS011;64346;50.820;16.274;2022-12-18T04:09:36;84.40;;;38.70;;
36441;SDS011;64346;50.820;16.274;2022-12-18T04:12:08;81.05;;;36.90;;
36441;SDS011;64346;50.820;16.274;2022-12-18T04:14:36;70.38;;;32.85;;
36441;SDS011;64346;50.820;16.274;2022-12-18T04:17:03;73.57;;;32.08;;
36441;SDS011;64346;50.820;16.274;2022-12-18T04:19:30;80.05;;;37.33;;
36441;SDS011;64346;50.820;16.274;2022-12-18T04:22:00;95.28;;;43.20;;
36441;SDS011;64346;50.820;16.274;2022-12-18T04:24:33;86.75;;;38.70;;
36441;SDS011;64346;50.820;16.274;2022-12-18T04:27:01;87.85;;;37.95;;
36441;SDS011;64346;50.820;16.274;2022-12-18T04:29:28;84.25;;;37.85;;
36441;SDS011;64346;50.820;16.274;2022-12-18T04:31:56;81.20;;;38.70;;
36441;SDS011;64346;50.820;16.274;2022-12-18T04:34:26;85.78;;;39.92;;
36441;SDS011;64346;50.820;16.274;2022-12-18T04:36:59;78.47;;;38.47;;
36441;SDS011;64346;50.820;16.274;2022-12-18T04:39:29;82.03;;;35.97;;
36441;SDS011;64346;50.820;16.274;2022-12-18T04:41:56;73.72;;;35.50;;
36441;SDS011;64346;50.820;16.274;2022-12-18T04:44:23;71.70;;;34.30;;
36441;SDS011;64346;50.820;16.274;2022-12-18T04:46:51;66.95;;;32.10;;
36441;SDS011;64346;50.820;16.274;2022-12-18T04:49:18;58.35;;;29.60;;
36441;SDS011;64346;50.820;16.274;2022-12-18T04:51:46;53.95;;;25.88;;
36441;SDS011;64346;50.820;16.274;2022-12-18T04:54:15;53.33;;;26.65;;
36441;SDS011;64346;50.820;16.274;2022-12-18T04:56:42;55.63;;;25.48;;
36441;SDS011;64346;50.820;16.274;2022-12-18T04:59:10;54.53;;;27.60;;
36441;SDS011;64346;50.820;16.274;2022-12-18T05:01:37;56.17;;;27.75;;
36441;SDS011;64346;50.820;16.274;2022-12-18T05:04:06;57.33;;;28.42;;
36441;SDS011;64346;50.820;16.274;2022-12-18T05:06:34;63.50;;;29.48;;
36441;SDS011;64346;50.820;16.274;2022-12-18T05:09:01;57.67;;;28.52;;
36441;SDS011;64346;50.820;16.274;2022-12-18T05:11:29;58.22;;;29.92;;
36441;SDS011;64346;50.820;16.274;2022-12-18T05:13:56;64.47;;;31.40;;
36441;SDS011;64346;50.820;16.274;2022-12-18T05:16:26;64.28;;;32.80;;
36441;SDS011;64346;50.820;16.274;2022-12-18T05:18:53;72.57;;;36.70;;
36441;SDS011;64346;50.820;16.274;2022-12-18T05:21:21;81.20;;;40.35;;
36441;SDS011;64346;50.820;16.274;2022-12-18T05:23:48;71.75;;;36.85;;
36441;SDS011;64346;50.820;16.274;2022-12-18T05:26:16;75.40;;;36.75;;
36441;SDS011;64346;50.820;16.274;2022-12-18T05:28:44;77.95;;;39.15;;
36441;SDS011;64346;50.820;16.274;2022-12-18T05:31:14;81.10;;;39.10;;
36441;SDS011;64346;50.820;16.274;2022-12-18T05:33:44;70.50;;;36.42;;
36441;SDS011;64346;50.820;16.274;2022-12-18T05:36:12;75.25;;;36.22;;
36441;SDS011;64346;50.820;16.274;2022-12-18T05:38:39;67.90;;;34.80;;
36441;SDS011;64346;50.820;16.274;2022-12-18T05:41:07;94.13;;;43.85;;
36441;SDS011;64346;50.820;16.274;2022-12-18T05:43:35;87.60;;;41.40;;
36441;SDS011;64346;50.820;16.274;2022-12-18T05:46:05;88.70;;;41.40;;
36441;SDS011;64346;50.820;16.274;2022-12-18T05:48:36;86.28;;;39.95;;
36441;SDS011;64346;50.820;16.274;2022-12-18T05:51:08;83.10;;;39.17;;
36441;SDS011;64346;50.820;16.274;2022-12-18T05:53:37;73.70;;;35.30;;
36441;SDS011;64346;50.820;16.274;2022-12-18T05:56:07;82.60;;;38.25;;
36441;SDS011;64346;50.820;16.274;2022-12-18T05:58:39;79.07;;;37.85;;
36441;SDS011;64346;50.820;16.274;2022-12-18T06:03:39;86.07;;;40.42;;
36441;SDS011;64346;50.820;16.274;2022-12-18T06:06:15;78.75;;;35.85;;
36441;SDS011;64346;50.820;16.274;2022-12-18T06:08:54;83.40;;;38.50;;
36441;SDS011;64346;50.820;16.274;2022-12-18T06:11:25;77.90;;;38.03;;
36441;SDS011;64346;50.820;16.274;2022-12-18T06:13:53;75.72;;;35.60;;
36441;SDS011;64346;50.820;16.274;2022-12-18T06:16:25;85.35;;;37.42;;
36441;SDS011;64346;50.820;16.274;2022-12-18T06:18:57;75.40;;;35.30;;
36441;SDS011;64346;50.820;16.274;2022-12-18T06:21:26;67.60;;;32.45;;
36441;SDS011;64346;50.820;16.274;2022-12-18T06:23:53;72.78;;;33.38;;
36441;SDS011;64346;50.820;16.274;2022-12-18T06:26:21;70.65;;;31.70;;
36441;SDS011;64346;50.820;16.274;2022-12-18T06:28:54;68.53;;;31.05;;
36441;SDS011;64346;50.820;16.274;2022-12-18T06:31:21;64.75;;;28.98;;
36441;SDS011;64346;50.820;16.274;2022-12-18T06:33:48;68.28;;;30.90;;
36441;SDS011;64346;50.820;16.274;2022-12-18T06:36:16;64.35;;;29.92;;
36441;SDS011;64346;50.820;16.274;2022-12-18T06:38:46;62.45;;;28.23;;
36441;SDS011;64346;50.820;16.274;2022-12-18T06:41:14;68.15;;;33.17;;
36441;SDS011;64346;50.820;16.274;2022-12-18T06:43:45;80.35;;;36.17;;
36441;SDS011;64346;50.820;16.274;2022-12-18T06:46:13;75.90;;;37.75;;
36441;SDS011;64346;50.820;16.274;2022-12-18T06:48:40;80.57;;;35.47;;
36441;SDS011;64346;50.820;16.274;2022-12-18T06:51:08;77.15;;;36.65;;
36441;SDS011;64346;50.820;16.274;2022-12-18T06:53:35;81.25;;;37.13;;
36441;SDS011;64346;50.820;16.274;2022-12-18T06:56:04;82.75;;;36.33;;
36441;SDS011;64346;50.820;16.274;2022-12-18T06:58:37;73.03;;;35.00;;
36441;SDS011;64346;50.820;16.274;2022-12-18T07:01:08;64.35;;;30.90;;
36441;SDS011;64346;50.820;16.274;2022-12-18T07:03:40;69.28;;;32.20;;
36441;SDS011;64346;50.820;16.274;2022-12-18T07:06:17;69.55;;;31.50;;
36441;SDS011;64346;50.820;16.274;2022-12-18T07:08:45;64.20;;;29.17;;
36441;SDS011;64346;50.820;16.274;2022-12-18T07:11:14;57.38;;;26.92;;
36441;SDS011;64346;50.820;16.274;2022-12-18T07:13:44;56.60;;;26.08;;
36441;SDS011;64346;50.820;16.274;2022-12-18T07:16:17;60.53;;;27.42;;
36441;SDS011;64346;50.820;16.274;2022-12-18T07:18:51;52.88;;;25.17;;
36441;SDS011;64346;50.820;16.274;2022-12-18T07:21:20;59.75;;;32.55;;
36441;SDS011;64346;50.820;16.274;2022-12-18T07:23:50;57.92;;;28.15;;
36441;SDS011;64346;50.820;16.274;2022-12-18T07:26:19;55.90;;;26.50;;
36441;SDS011;64346;50.820;16.274;2022-12-18T07:28:49;58.10;;;27.88;;
36441;SDS011;64346;50.820;16.274;2022-12-18T07:31:18;55.15;;;27.77;;
36441;SDS011;64346;50.820;16.274;2022-12-18T07:33:47;51.30;;;25.48;;
36441;SDS011;64346;50.820;16.274;2022-12-18T07:36:19;46.95;;;24.08;;
36441;SDS011;64346;50.820;16.274;2022-12-18T07:38:51;51.50;;;24.90;;
36441;SDS011;64346;50.820;16.274;2022-12-18T07:41:21;54.28;;;25.38;;
36441;SDS011;64346;50.820;16.274;2022-12-18T07:43:48;53.58;;;26.58;;
36441;SDS011;64346;50.820;16.274;2022-12-18T07:46:18;53.88;;;26.52;;
36441;SDS011;64346;50.820;16.274;2022-12-18T07:48:48;54.70;;;25.73;;
36441;SDS011;64346;50.820;16.274;2022-12-18T07:51:16;54.60;;;27.73;;
36441;SDS011;64346;50.820;16.274;2022-12-18T07:53:44;54.15;;;28.17;;
36441;SDS011;64346;50.820;16.274;2022-12-18T07:56:15;54.95;;;26.95;;
36441;SDS011;64346;50.820;16.274;2022-12-18T07:58:58;48.83;;;25.77;;
36441;SDS011;64346;50.820;16.274;2022-12-18T08:01:26;53.67;;;26.42;;
36441;SDS011;64346;50.820;16.274;2022-12-18T08:03:54;52.72;;;28.58;;
36441;SDS011;64346;50.820;16.274;2022-12-18T08:06:24;61.40;;;32.60;;
36441;SDS011;64346;50.820;16.274;2022-12-18T08:08:52;57.05;;;32.22;;
36441;SDS011;64346;50.820;16.274;2022-12-18T08:11:24;54.63;;;30.27;;
36441;SDS011;64346;50.820;16.274;2022-12-18T08:13:54;57.53;;;31.73;;
36441;SDS011;64346;50.820;16.274;2022-12-18T08:16:25;56.28;;;31.67;;
36441;SDS011;64346;50.820;16.274;2022-12-18T08:18:55;55.35;;;33.25;;
36441;SDS011;64346;50.820;16.274;2022-12-18T08:21:24;51.10;;;31.02;;
36441;SDS011;64346;50.820;16.274;2022-12-18T08:23:53;50.88;;;33.42;;
36441;SDS011;64346;50.820;16.274;2022-12-18T08:26:23;50.65;;;32.30;;
36441;SDS011;64346;50.820;16.274;2022-12-18T08:28:53;55.05;;;34.55;;
36441;SDS011;64346;50.820;16.274;2022-12-18T08:31:22;54.10;;;33.90;;
36441;SDS011;64346;50.820;16.274;2022-12-18T08:33:51;48.33;;;32.33;;
36441;SDS011;64346;50.820;16.274;2022-12-18T08:36:22;48.65;;;32.38;;
36441;SDS011;64346;50.820;16.274;2022-12-18T08:38:50;52.75;;;34.75;;
36441;SDS011;64346;50.820;16.274;2022-12-18T08:41:19;53.15;;;33.85;;
36441;SDS011;64346;50.820;16.274;2022-12-18T08:43:46;64.63;;;40.90;;
36441;SDS011;64346;50.820;16.274;2022-12-18T08:46:16;61.63;;;41.80;;
36441;SDS011;64346;50.820;16.274;2022-12-18T08:48:45;67.80;;;44.80;;
36441;SDS011;64346;50.820;16.274;2022-12-18T08:51:12;68.65;;;44.90;;
36441;SDS011;64346;50.820;16.274;2022-12-18T08:53:42;68.78;;;45.38;;
36441;SDS011;64346;50.820;16.274;2022-12-18T08:56:10;71.10;;;46.22;;
36441;SDS011;64346;50.820;16.274;2022-12-18T08:58:40;65.97;;;42.33;;
36441;SDS011;64346;50.820;16.274;2022-12-18T09:01:11;61.60;;;39.67;;
36441;SDS011;64346;50.820;16.274;2022-12-18T09:03:39;60.75;;;41.92;;
36441;SDS011;64346;50.820;16.274;2022-12-18T09:06:07;61.03;;;41.67;;
36441;SDS011;64346;50.820;16.274;2022-12-18T09:08:35;61.22;;;40.20;;
36441;SDS011;64346;50.820;16.274;2022-12-18T09:11:02;65.80;;;42.47;;
36441;SDS011;64346;50.820;16.274;2022-12-18T09:13:30;67.93;;;44.08;;
36441;SDS011;64346;50.820;16.274;2022-12-18T09:15:59;65.53;;;42.58;;
36441;SDS011;64346;50.820;16.274;2022-12-18T09:18:30;66.05;;;45.38;;
36441;SDS011;64346;50.820;16.274;2022-12-18T09:20:57;62.20;;;40.70;;
36441;SDS011;64346;50.820;16.274;2022-12-18T09:23:24;66.55;;;43.42;;
36441;SDS011;64346;50.820;16.274;2022-12-18T09:25:51;64.22;;;43.67;;
36441;SDS011;64346;50.820;16.274;2022-12-18T09:28:24;67.45;;;44.58;;
36441;SDS011;64346;50.820;16.274;2022-12-18T09:30:54;65.63;;;44.67;;
36441;SDS011;64346;50.820;16.274;2022-12-18T09:33:22;64.93;;;44.38;;
36441;SDS011;64346;50.820;16.274;2022-12-18T09:35:49;65.28;;;44.95;;
36441;SDS011;64346;50.820;16.274;2022-12-18T09:38:18;64.07;;;45.05;;
36441;SDS011;64346;50.820;16.274;2022-12-18T09:40:49;62.90;;;41.78;;
36441;SDS011;64346;50.820;16.274;2022-12-18T09:43:24;59.40;;;40.63;;
36441;SDS011;64346;50.820;16.274;2022-12-18T09:46:01;57.60;;;38.58;;
36441;SDS011;64346;50.820;16.274;2022-12-18T09:48:33;51.53;;;36.13;;
36441;SDS011;64346;50.820;16.274;2022-12-18T09:51:05;48.33;;;30.83;;
36441;SDS011;64346;50.820;16.274;2022-12-18T09:53:50;46.03;;;30.48;;
36441;SDS011;64346;50.820;16.274;2022-12-18T09:56:25;44.38;;;30.30;;
36441;SDS011;64346;50.820;16.274;2022-12-18T09:58:59;43.67;;;29.48;;
36441;SDS011;64346;50.820;16.274;2022-12-18T10:01:27;41.78;;;28.08;;
36441;SDS011;64346;50.820;16.274;2022-12-18T10:04:09;42.78;;;29.77;;
36441;SDS011;64346;50.820;16.274;2022-12-18T10:06:45;45.03;;;30.63;;
36441;SDS011;64346;50.820;16.274;2022-12-18T10:12:20;45.45;;;30.70;;
36441;SDS011;64346;50.820;16.274;2022-12-18T10:17:43;51.80;;;32.85;;
36441;SDS011;64346;50.820;16.274;2022-12-18T10:28:20;39.83;;;26.33;;
36441;SDS011;64346;50.820;16.274;2022-12-18T10:30:50;32.40;;;22.00;;
36441;SDS011;64346;50.820;16.274;2022-12-18T10:33:24;33.38;;;21.65;;
36441;SDS011;64346;50.820;16.274;2022-12-18T10:35:58;34.47;;;21.58;;
36441;SDS011;64346;50.820;16.274;2022-12-18T10:38:29;34.80;;;22.20;;
36441;SDS011;64346;50.820;16.274;2022-12-18T10:40:59;32.55;;;21.63;;
36441;SDS011;64346;50.820;16.274;2022-12-18T10:56:28;39.25;;;25.77;;
36441;SDS011;64346;50.820;16.274;2022-12-18T10:59:02;36.58;;;24.15;;
36441;SDS011;64346;50.820;16.274;2022-12-18T11:04:24;34.00;;;22.05;;
36441;SDS011;64346;50.820;16.274;2022-12-18T11:07:05;33.25;;;22.35;;
36441;SDS011;64346;50.820;16.274;2022-12-18T11:09:35;31.23;;;21.13;;
36441;SDS011;64346;50.820;16.274;2022-12-18T11:12:08;34.13;;;21.67;;
36441;SDS011;64346;50.820;16.274;2022-12-18T11:14:46;32.92;;;21.08;;
36441;SDS011;64346;50.820;16.274;2022-12-18T11:19:53;33.60;;;21.13;;
36441;SDS011;64346;50.820;16.274;2022-12-18T11:22:27;34.80;;;22.48;;
36441;SDS011;64346;50.820;16.274;2022-12-18T11:28:08;43.47;;;24.98;;
36441;SDS011;64346;50.820;16.274;2022-12-18T11:33:53;46.95;;;25.10;;
36441;SDS011;64346;50.820;16.274;2022-12-18T11:36:57;48.70;;;24.02;;
36441;SDS011;64346;50.820;16.274;2022-12-18T11:44:55;48.33;;;24.60;;
36441;SDS011;64346;50.820;16.274;2022-12-18T11:50:21;43.80;;;21.70;;
36441;SDS011;64346;50.820;16.274;2022-12-18T11:52:55;40.47;;;19.63;;
36441;SDS011;64346;50.820;16.274;2022-12-18T12:01:13;39.67;;;21.15;;
36441;SDS011;64346;50.820;16.274;2022-12-18T12:07:11;44.42;;;20.48;;
36441;SDS011;64346;50.820;16.274;2022-12-18T12:19:32;61.13;;;29.65;;
36441;SDS011;64346;50.820;16.274;2022-12-18T12:32:49;62.28;;;30.40;;
36441;SDS011;64346;50.820;16.274;2022-12-18T12:38:49;59.63;;;28.05;;
36441;SDS011;64346;50.820;16.274;2022-12-18T12:41:26;57.20;;;27.13;;
36441;SDS011;64346;50.820;16.274;2022-12-18T12:44:00;52.15;;;24.95;;
36441;SDS011;64346;50.820;16.274;2022-12-18T12:46:37;53.47;;;26.92;;
36441;SDS011;64346;50.820;16.274;2022-12-18T12:51:39;58.78;;;28.58;;
36441;SDS011;64346;50.820;16.274;2022-12-18T12:54:15;57.95;;;26.52;;
36441;SDS011;64346;50.820;16.274;2022-12-18T13:01:59;61.20;;;26.42;;
36441;SDS011;64346;50.820;16.274;2022-12-18T13:15:46;59.53;;;30.48;;
36441;SDS011;64346;50.820;16.274;2022-12-18T13:18:16;62.00;;;32.10;;
36441;SDS011;64346;50.820;16.274;2022-12-18T13:23:30;65.28;;;30.95;;
36441;SDS011;64346;50.820;16.274;2022-12-18T13:36:57;71.93;;;34.17;;
36441;SDS011;64346;50.820;16.274;2022-12-18T13:39:55;77.97;;;35.60;;
36441;SDS011;64346;50.820;16.274;2022-12-18T13:44:49;57.13;;;29.90;;
36441;SDS011;64346;50.820;16.274;2022-12-18T13:47:39;61.75;;;28.58;;
36441;SDS011;64346;50.820;16.274;2022-12-18T13:50:38;62.92;;;29.65;;
36441;SDS011;64346;50.820;16.274;2022-12-18T13:53:02;59.25;;;27.45;;
36441;SDS011;64346;50.820;16.274;2022-12-18T13:55:35;62.65;;;29.52;;
36441;SDS011;64346;50.820;16.274;2022-12-18T13:58:04;57.92;;;27.15;;
36441;SDS011;64346;50.820;16.274;2022-12-18T14:00:33;58.50;;;28.65;;
36441;SDS011;64346;50.820;16.274;2022-12-18T14:03:00;58.00;;;28.63;;
36441;SDS011;64346;50.820;16.274;2022-12-18T14:05:29;60.30;;;28.20;;
36441;SDS011;64346;50.820;16.274;2022-12-18T14:08:05;62.63;;;30.77;;
36441;SDS011;64346;50.820;16.274;2022-12-18T14:10:45;56.97;;;29.77;;
36441;SDS011;64346;50.820;16.274;2022-12-18T14:13:21;62.17;;;30.80;;
36441;SDS011;64346;50.820;16.274;2022-12-18T14:16:04;62.92;;;32.67;;
36441;SDS011;64346;50.820;16.274;2022-12-18T14:18:38;67.72;;;31.05;;
36441;SDS011;64346;50.820;16.274;2022-12-18T14:21:23;65.97;;;32.72;;
36441;SDS011;64346;50.820;16.274;2022-12-18T14:24:11;61.67;;;31.17;;
36441;SDS011;64346;50.820;16.274;2022-12-18T14:26:39;63.58;;;32.00;;
36441;SDS011;64346;50.820;16.274;2022-12-18T14:34:40;63.70;;;31.38;;
36441;SDS011;64346;50.820;16.274;2022-12-18T14:37:11;82.65;;;42.97;;
36441;SDS011;64346;50.820;16.274;2022-12-18T14:39:40;96.03;;;46.65;;
36441;SDS011;64346;50.820;16.274;2022-12-18T14:42:18;102.90;;;49.60;;
36441;SDS011;64346;50.820;16.274;2022-12-18T14:44:45;103.85;;;50.15;;
36441;SDS011;64346;50.820;16.274;2022-12-18T14:47:33;110.45;;;47.70;;
36441;SDS011;64346;50.820;16.274;2022-12-18T14:50:03;104.03;;;51.72;;
36441;SDS011;64346;50.820;16.274;2022-12-18T14:52:38;108.63;;;51.20;;
36441;SDS011;64346;50.820;16.274;2022-12-18T14:55:13;104.40;;;49.78;;
36441;SDS011;64346;50.820;16.274;2022-12-18T14:57:44;109.82;;;49.95;;
36441;SDS011;64346;50.820;16.274;2022-12-18T15:00:21;97.82;;;47.08;;
36441;SDS011;64346;50.820;16.274;2022-12-18T15:02:51;105.95;;;48.38;;
36441;SDS011;64346;50.820;16.274;2022-12-18T15:05:26;107.57;;;52.53;;
36441;SDS011;64346;50.820;16.274;2022-12-18T15:07:58;111.32;;;52.60;;
36441;SDS011;64346;50.820;16.274;2022-12-18T15:10:32;107.85;;;51.42;;
36441;SDS011;64346;50.820;16.274;2022-12-18T15:18:02;87.68;;;42.88;;
36441;SDS011;64346;50.820;16.274;2022-12-18T15:23:36;81.45;;;38.58;;
36441;SDS011;64346;50.820;16.274;2022-12-18T15:26:08;75.78;;;38.38;;
36441;SDS011;64346;50.820;16.274;2022-12-18T15:33:44;80.80;;;42.90;;
36441;SDS011;64346;50.820;16.274;2022-12-18T15:36:13;96.97;;;46.97;;
36441;SDS011;64346;50.820;16.274;2022-12-18T15:38:48;92.73;;;44.00;;
36441;SDS011;64346;50.820;16.274;2022-12-18T15:41:18;90.00;;;44.33;;
36441;SDS011;64346;50.820;16.274;2022-12-18T15:43:52;58.60;;;28.02;;
36441;SDS011;64346;50.820;16.274;2022-12-18T15:46:23;58.83;;;28.15;;
36441;SDS011;64346;50.820;16.274;2022-12-18T15:48:52;67.70;;;30.05;;
36441;SDS011;64346;50.820;16.274;2022-12-18T15:53:58;64.00;;;29.50;;
36441;SDS011;64346;50.820;16.274;2022-12-18T15:56:28;64.60;;;31.95;;
36441;SDS011;64346;50.820;16.274;2022-12-18T15:58:57;71.13;;;33.78;;
36441;SDS011;64346;50.820;16.274;2022-12-18T16:01:26;56.13;;;27.70;;
36441;SDS011;64346;50.820;16.274;2022-12-18T16:03:55;58.88;;;29.35;;
36441;SDS011;64346;50.820;16.274;2022-12-18T16:06:23;49.33;;;23.75;;
36441;SDS011;64346;50.820;16.274;2022-12-18T16:08:50;43.55;;;19.77;;
36441;SDS011;64346;50.820;16.274;2022-12-18T16:11:22;46.70;;;22.52;;
36441;SDS011;64346;50.820;16.274;2022-12-18T16:13:54;68.15;;;31.23;;
36441;SDS011;64346;50.820;16.274;2022-12-18T16:16:23;75.10;;;36.17;;
36441;SDS011;64346;50.820;16.274;2022-12-18T16:18:50;100.75;;;49.30;;
36441;SDS011;64346;50.820;16.274;2022-12-18T16:21:18;66.57;;;29.45;;
36441;SDS011;64346;50.820;16.274;2022-12-18T16:23:47;106.38;;;49.67;;
36441;SDS011;64346;50.820;16.274;2022-12-18T16:26:14;109.25;;;56.70;;
36441;SDS011;64346;50.820;16.274;2022-12-18T16:28:41;70.63;;;33.35;;
36441;SDS011;64346;50.820;16.274;2022-12-18T16:31:14;104.65;;;50.47;;
36441;SDS011;64346;50.820;16.274;2022-12-18T16:33:41;89.57;;;40.58;;
36441;SDS011;64346;50.820;16.274;2022-12-18T16:36:10;68.00;;;32.58;;
36441;SDS011;64346;50.820;16.274;2022-12-18T16:38:40;78.30;;;36.13;;
36441;SDS011;64346;50.820;16.274;2022-12-18T16:41:17;90.13;;;42.30;;
36441;SDS011;64346;50.820;16.274;2022-12-18T16:43:45;82.47;;;38.72;;
36441;SDS011;64346;50.820;16.274;2022-12-18T16:46:20;98.63;;;43.85;;
36441;SDS011;64346;50.820;16.274;2022-12-18T16:48:48;106.72;;;46.97;;
36441;SDS011;64346;50.820;16.274;2022-12-18T16:51:15;125.20;;;61.03;;
36441;SDS011;64346;50.820;16.274;2022-12-18T16:53:45;121.32;;;56.13;;
36441;SDS011;64346;50.820;16.274;2022-12-18T16:56:15;118.57;;;57.20;;
36441;SDS011;64346;50.820;16.274;2022-12-18T16:58:42;91.50;;;44.33;;
36441;SDS011;64346;50.820;16.274;2022-12-18T17:01:11;134.05;;;63.20;;
36441;SDS011;64346;50.820;16.274;2022-12-18T17:03:40;124.63;;;59.63;;
36441;SDS011;64346;50.820;16.274;2022-12-18T17:06:10;99.57;;;46.50;;
36441;SDS011;64346;50.820;16.274;2022-12-18T17:08:39;121.38;;;55.95;;
36441;SDS011;64346;50.820;16.274;2022-12-18T17:11:07;148.20;;;70.63;;
36441;SDS011;64346;50.820;16.274;2022-12-18T17:13:34;133.88;;;62.10;;
36441;SDS011;64346;50.820;16.274;2022-12-18T17:16:05;122.65;;;61.50;;
36441;SDS011;64346;50.820;16.274;2022-12-18T17:18:34;147.27;;;72.85;;
36441;SDS011;64346;50.820;16.274;2022-12-18T17:21:02;147.70;;;73.68;;